• Join FlightAware (Why Join?)
  • Login
  • US Flag 
Rudolph Flight #1: Arrived! 
05:16PM EST


 

Airport Tracker/Info


-or-


 

Live Flight TrackerFlight Track Log ✈ ASQ4421 ✈ 04-Jul-2013 ✈ KORD - KTYS

Flight Track Log - Related Links

Times and Time Zones

All times are in EDT time to prevent confusion due to time zone crossing. See the ASQ4421 flight status page for this flight to view local times or setup timezone preferences in your user account.

Time Position Orientation Groundspeed Altitude Reporting Facility
EDT Latitude Longitude Course Direction KTS MPH feet Rate Location/Type
06:29PM 41.9500 -87.9000 159° South 153 176 1,700  Level Chicago TRACON
06:30PM 41.9000 -87.8833 166° South 185 213 3,600 1,560 Climbing Chicago TRACON
06:31PM 41.8125 -87.8258 154° Southeast 244 281 5,700 1,680 Climbing Chicago Center
06:32PM 41.6350 -87.6653 156° South  Level Estimated
06:32PM 41.7436 -87.7803 154° Southeast 274 315 7,800  Level Chicago Center
06:33PM 41.5424 -87.6242 162° South  Level FlightAware Approximate
06:33PM 41.6725 -87.7333 154° Southeast 283 326 10,000  Level Chicago Center
06:34PM 41.4557 -87.5641 159° South  Level Estimated
06:34PM 41.5992 -87.6864 154° Southeast 289 333 11,700  Level Chicago Center
06:35PM 41.5236 -87.6356 153° Southeast 301 346 13,400 1,380 Climbing Chicago Center
06:36PM 41.4439 -87.5853 155° Southeast 310 357 14,600 1,080 Climbing Chicago Center
06:37PM 41.3494 -87.5589 168° South 346 398 15,600 1,020 Climbing Chicago Center
06:38PM 41.2528 -87.5419 172° South 349 402 16,800 1,140 Climbing Chicago Center
06:39PM 41.1361 -87.5169 171° South 352 405 18,000 1,080 Climbing Chicago Center
06:40PM 41.0369 -87.4897 168° South 361 415 19,100 1,020 Climbing Chicago Center
06:41PM 40.9378 -87.4619 168° South 365 420 20,100 1,020 Climbing Chicago Center
06:42PM 40.8372 -87.4347 168° South 367 422 21,200 1,140 Climbing Chicago Center
06:43PM 40.7369 -87.4094 169° South 369 425 22,500 1,260 Climbing Chicago Center
06:44PM 40.6392 -87.3828 168° South 366 421 23,800 1,260 Climbing Chicago Center
06:45PM 40.5447 -87.3572 168° South 357 411 25,100 1,200 Climbing Chicago Center
06:46PM 40.4536 -87.3322 168° South 347 399 26,300 1,200 Climbing Chicago Center
06:47PM 40.3742 -87.2611 146° Southeast 353 406 27,600 1,320 Climbing Chicago Center
06:49PM 40.2811 -87.1761 145° Southeast 345 397 29,100 1,260 Climbing Chicago Center
06:50PM 40.2064 -87.1072 145° Southeast 339 390 30,300 900 Climbing Chicago Center
06:51PM 40.1322 -87.0381 145° Southeast 333 383 31,000 360 Climbing Chicago Center
06:51PM 40.0661 -86.9822 147° Southeast 347 399 31,000  Level Indianapolis Center
06:52PM 39.9778 -86.9181 151° Southeast 363 418 31,000  Level Indianapolis Center
06:53PM 39.8900 -86.8506 149° Southeast 369 425 31,000  Level Indianapolis Center
06:54PM 39.8033 -86.7878 151° Southeast 362 417 31,000  Level Indianapolis Center
06:55PM 39.7192 -86.7244 150° Southeast 355 409 31,000  Level Indianapolis Center
06:56PM 39.6181 -86.6483 150° Southeast 352 405 31,000  Level Indianapolis Center
06:57PM 39.5336 -86.5869 151° Southeast 352 405 31,000  Level Indianapolis Center
06:58PM 39.4500 -86.5253 150° Southeast 351 404 31,000  Level Indianapolis Center
07:00PM 39.3672 -86.4642 150° Southeast 348 400 31,000  Level Indianapolis Center
07:01PM 39.2842 -86.4028 150° Southeast 347 399 31,000  Level Indianapolis Center
07:02PM 39.1997 -86.3414 151° Southeast 350 403 31,000  Level Indianapolis Center
07:03PM 39.1150 -86.2792 150° Southeast 351 404 31,000  Level Indianapolis Center
07:04PM 39.0308 -86.2178 150° Southeast 350 403 31,000  Level Indianapolis Center
07:05PM 38.9283 -86.1450 151° Southeast 353 406 31,000  Level Indianapolis Center
07:06PM 38.8483 -86.0856 150° Southeast 358 412 31,000  Level Indianapolis Center
07:07PM 38.7619 -86.0244 151° Southeast 353 406 31,000  Level Indianapolis Center
07:08PM 38.6731 -85.9597 150° Southeast 362 417 31,000  Level Indianapolis Center
07:09PM 38.5856 -85.8967 151° Southeast 360 414 31,000  Level Indianapolis Center
07:10PM 38.4956 -85.8331 151° Southeast 365 420 31,000  Level Indianapolis Center
07:11PM 38.4050 -85.7681 151° Southeast 370 426 31,000  Level Indianapolis Center
07:12PM 38.3147 -85.7033 151° Southeast 369 425 31,000  Level Indianapolis Center
07:13PM 38.2228 -85.6386 151° Southeast 372 428 31,000  Level Indianapolis Center
07:14PM 38.1306 -85.5733 151° Southeast 376 433 31,000  Level Indianapolis Center
07:15PM 38.0364 -85.5097 152° Southeast 380 437 31,000  Level Indianapolis Center
07:16PM 37.9444 -85.4442 151° Southeast 377 434 31,000  Level Indianapolis Center
07:17PM 37.8517 -85.3794 151° Southeast 378 435 31,000  Level Indianapolis Center
07:18PM 37.7514 -85.3075 150° Southeast 375 432 31,000  Level Indianapolis Center
07:19PM 37.6594 -85.2436 151° Southeast 376 433 31,000  Level Indianapolis Center
07:20PM 37.5656 -85.1803 152° Southeast 381 438 31,000  Level Indianapolis Center
07:21PM 37.4739 -85.1164 151° Southeast 379 436 31,000 -480 Level Indianapolis Center
07:22PM 37.3797 -85.0681 158° South 368 423 30,100 -1,260 Descending Indianapolis Center
07:23PM 37.2592 -85.0325 167° South 377 434 28,500 -1,620 Descending Indianapolis Center
07:24PM 37.1528 -85.0006 167° South 389 448 26,900 -1,680 Descending Indianapolis Center
07:25PM 37.0444 -84.9747 169° South 394 453 25,200 -1,620 Descending Indianapolis Center
07:26PM 36.9492 -84.9506 169° South 392 451 23,700 -1,620 Descending Indianapolis Center
07:27PM 36.8425 -84.9247 169° South 390 449 22,000 -1,680 Descending Indianapolis Center
07:28PM 36.7397 -84.9114 174° South 372 428 20,300 -1,680 Descending Indianapolis Center
07:29PM 36.6397 -84.8861 169° South 369 425 18,600 -1,920 Descending Indianapolis Center
07:30PM 36.5244 -84.8314 159° South 368 423 16,500 -2,220 Descending Indianapolis Center
07:31PM 36.4417 -84.7722 150° Southeast 345 397 14,100 -2,280 Descending Indianapolis Center
07:32PM 36.3647 -84.7175 150° Southeast 325 374 11,900 -1,560 Descending Indianapolis Center
07:33PM 36.2975 -84.6667 149° Southeast 289 333 11,000 -480 Descending Indianapolis Center
07:34PM 36.2361 -84.6158 146° Southeast 266 306 11,000  Level Indianapolis Center
07:35PM 36.1778 -84.5558 140° Southeast 270 311 11,000 -240 Level Indianapolis Center
07:36PM 36.1075 -84.4858 141° Southeast 271 312 10,600 -1,080 Descending Atlanta Center
07:37PM 36.0536 -84.4292 140° Southeast 265 305 8,700 -1,920 Descending Atlanta Center
07:38PM 36.0014 -84.3775 141° Southeast 258 297 6,800 -1,740 Descending Atlanta Center
07:39PM 35.9433 -84.3336 149° Southeast 246 283 5,300 -1,140 Descending Atlanta Center
07:40PM 35.8850 -84.3003 155° Southeast 239 275 4,600 -660 Descending Atlanta Center
07:41PM 35.8308 -84.2744 159° South 233 268 4,000 -300 Descending Atlanta Center
07:42PM 35.7703 -84.2486 161° South 233 268 4,000 -240 Level Atlanta Center
07:43PM 35.7181 -84.2025 144° Southeast 228 262 3,600 -420 Descending Atlanta Center